Preble, IN (46782)

3:24 PM EST on January 25, 2015 (GMT -0500)
Borne Farms, Preble, IN | Change Station
CLOSE
Current Station
Personal Weather Station
Location: Decatur, IN
Elevation: 814 ft
Nearby Weather Stations
Active Advisory: Winter Weather Advisory

Elev 814 ft 40.83 °N, 85.02 °W | Updated 9 minutes ago

Snow
Snow
25.7 °F
Feels Like 14 °F
N
13.0
Wind Variable Wind from ENE
Gusts 29.0 mph

Today
High -- | Low -- °F
--% Chance of Precip.
Yesterday
High -- | Low -- °F
Precip. -- in
7:56 AM 5:48 PM
Waxing Crescent, 35% visible
Pressure 29.78 in
Visibility 1.2 miles
Clouds Mostly Cloudy 1200 ft
Overcast 2600 ft
Windchill 14 °F
Dew Point 25 °F
Humidity 95%
Rainfall 0.00 in
Snow Depth Not available.
UV 1 out of 12
Pollen .10 out of 12
Air Quality Not available.
Flu Activity Not available.
METAR KFWA 251954Z 06018G28KT 1 1/4SM -SN BR BKN012 OVC026 M03/M05 A2976 RMK AO2 PK WND 05029/1943 SLP084 R05/6500FT P0001 T10331050

More Conditions Fewer Conditions

Pressure 29.78 in
Visibility 1.2 miles
Clouds Mostly Cloudy 1200 ft
Overcast 2600 ft
Windchill 14 °F
Dew Point 25 °F
Humidity 95%
Rainfall 0.00 in
Snow Depth Not available.
UV 1 out of 12
Pollen .10 out of 12
Air Quality Not available.
Flu Activity Not available.
METAR KFWA 251954Z 06018G28KT 1 1/4SM -SN BR BKN012 OVC026 M03/M05 A2976 RMK AO2 PK WND 05029/1943 SLP084 R05/6500FT P0001 T10331050

More Conditions Fewer Conditions

10-Day Weather Forecast

Almanac

Astronomy

Jan. 25, 2015 Rise Set
Actual Time
Civil Twilight
Nautical Twilight
Astronomical Twilight
Moon
Length of Visible Light
Length of Day
Tomorrow will be .
, % of the Moon is Illuminated

Today's Extremes

State Highs State Lows

Community

WunderPhotos

Upload Photos

1,790,038 photos uploaded!

WunderBlogs® & News

Nearby

Air Quality

  Air Quality AQ Index Pollutant
Not available.

Snow Depth

Station Depth Elevation

Earthquake Activity

City Distance Mag. Time & Date
Minimum magnitude displayed is 2.5.

Coastal Water Temperatures

Place Temperature

Nearby Weather Stations